sensor_id;sensor_type;location;lat;lon;timestamp;temperature;humidity
37322;DHT22;23697;48.684;9.032;2023-04-25T00:01:32;7.60;81.00
37322;DHT22;23697;48.684;9.032;2023-04-25T00:04:01;7.60;81.10
37322;DHT22;23697;48.684;9.032;2023-04-25T00:06:28;7.60;81.10
37322;DHT22;23697;48.684;9.032;2023-04-25T00:08:55;7.60;80.90
37322;DHT22;23697;48.684;9.032;2023-04-25T00:11:23;7.60;81.00
37322;DHT22;23697;48.684;9.032;2023-04-25T00:13:50;7.60;81.10
37322;DHT22;23697;48.684;9.032;2023-04-25T00:16:16;7.50;81.10
37322;DHT22;23697;48.684;9.032;2023-04-25T00:18:43;7.50;81.10
37322;DHT22;23697;48.684;9.032;2023-04-25T00:21:16;7.50;81.20
37322;DHT22;23697;48.684;9.032;2023-04-25T00:23:43;7.50;81.20
37322;DHT22;23697;48.684;9.032;2023-04-25T00:26:11;7.40;81.20
37322;DHT22;23697;48.684;9.032;2023-04-25T00:28:41;7.40;81.20
37322;DHT22;23697;48.684;9.032;2023-04-25T00:31:07;7.40;81.30
37322;DHT22;23697;48.684;9.032;2023-04-25T00:33:39;7.40;81.40
37322;DHT22;23697;48.684;9.032;2023-04-25T00:36:08;7.40;81.50
37322;DHT22;23697;48.684;9.032;2023-04-25T00:38:35;7.40;81.50
37322;DHT22;23697;48.684;9.032;2023-04-25T00:41:04;7.40;81.20
37322;DHT22;23697;48.684;9.032;2023-04-25T00:43:31;7.40;81.30
37322;DHT22;23697;48.684;9.032;2023-04-25T00:46:00;7.40;81.20
37322;DHT22;23697;48.684;9.032;2023-04-25T00:48:27;7.40;81.20
37322;DHT22;23697;48.684;9.032;2023-04-25T00:50:54;7.40;80.90
37322;DHT22;23697;48.684;9.032;2023-04-25T00:53:21;7.40;80.90
37322;DHT22;23697;48.684;9.032;2023-04-25T00:55:48;7.40;80.90
37322;DHT22;23697;48.684;9.032;2023-04-25T00:58:16;7.40;81.00
37322;DHT22;23697;48.684;9.032;2023-04-25T01:00:43;7.40;81.10
37322;DHT22;23697;48.684;9.032;2023-04-25T01:03:11;7.40;81.20
37322;DHT22;23697;48.684;9.032;2023-04-25T01:05:38;7.40;81.40
37322;DHT22;23697;48.684;9.032;2023-04-25T01:08:05;7.40;81.40
37322;DHT22;23697;48.684;9.032;2023-04-25T01:10:32;7.40;81.50
37322;DHT22;23697;48.684;9.032;2023-04-25T01:12:59;7.40;81.50
37322;DHT22;23697;48.684;9.032;2023-04-25T01:15:25;7.40;81.40
37322;DHT22;23697;48.684;9.032;2023-04-25T01:17:52;7.40;81.60
37322;DHT22;23697;48.684;9.032;2023-04-25T01:20:22;7.40;82.10
37322;DHT22;23697;48.684;9.032;2023-04-25T01:22:50;7.40;82.70
37322;DHT22;23697;48.684;9.032;2023-04-25T01:25:17;7.30;82.70
37322;DHT22;23697;48.684;9.032;2023-04-25T01:27:44;7.30;83.00
37322;DHT22;23697;48.684;9.032;2023-04-25T01:30:11;7.10;83.10
37322;DHT22;23697;48.684;9.032;2023-04-25T01:32:38;7.00;83.40
37322;DHT22;23697;48.684;9.032;2023-04-25T01:35:05;6.80;83.40
37322;DHT22;23697;48.684;9.032;2023-04-25T01:37:34;6.80;83.90
37322;DHT22;23697;48.684;9.032;2023-04-25T01:40:03;6.80;84.20
37322;DHT22;23697;48.684;9.032;2023-04-25T01:42:30;6.70;84.40
37322;DHT22;23697;48.684;9.032;2023-04-25T01:44:57;6.70;84.20
37322;DHT22;23697;48.684;9.032;2023-04-25T01:47:24;6.70;84.20
37322;DHT22;23697;48.684;9.032;2023-04-25T01:49:50;6.70;84.20
37322;DHT22;23697;48.684;9.032;2023-04-25T01:52:17;6.60;84.40
37322;DHT22;23697;48.684;9.032;2023-04-25T01:54:44;6.60;84.50
37322;DHT22;23697;48.684;9.032;2023-04-25T01:57:12;6.60;84.70
37322;DHT22;23697;48.684;9.032;2023-04-25T01:59:38;6.60;84.80
37322;DHT22;23697;48.684;9.032;2023-04-25T02:02:06;6.60;85.00
37322;DHT22;23697;48.684;9.032;2023-04-25T02:04:32;6.60;85.10
37322;DHT22;23697;48.684;9.032;2023-04-25T02:06:59;6.60;85.20
37322;DHT22;23697;48.684;9.032;2023-04-25T02:09:26;6.60;85.30
37322;DHT22;23697;48.684;9.032;2023-04-25T02:11:52;6.60;85.30
37322;DHT22;23697;48.684;9.032;2023-04-25T02:14:21;6.50;85.40
37322;DHT22;23697;48.684;9.032;2023-04-25T02:16:47;6.50;85.50
37322;DHT22;23697;48.684;9.032;2023-04-25T02:19:14;6.50;85.60
37322;DHT22;23697;48.684;9.032;2023-04-25T02:21:41;6.50;85.60
37322;DHT22;23697;48.684;9.032;2023-04-25T02:24:07;6.50;85.70
37322;DHT22;23697;48.684;9.032;2023-04-25T02:26:34;6.50;85.70
37322;DHT22;23697;48.684;9.032;2023-04-25T02:29:01;6.50;85.80
37322;DHT22;23697;48.684;9.032;2023-04-25T02:31:29;6.40;85.90
37322;DHT22;23697;48.684;9.032;2023-04-25T02:33:56;6.40;85.90
37322;DHT22;23697;48.684;9.032;2023-04-25T02:36:22;6.50;85.90
37322;DHT22;23697;48.684;9.032;2023-04-25T02:38:49;6.40;85.90
37322;DHT22;23697;48.684;9.032;2023-04-25T02:41:16;6.40;85.90
37322;DHT22;23697;48.684;9.032;2023-04-25T02:43:43;6.50;85.90
37322;DHT22;23697;48.684;9.032;2023-04-25T02:46:09;6.40;85.90
37322;DHT22;23697;48.684;9.032;2023-04-25T02:48:37;6.40;85.90
37322;DHT22;23697;48.684;9.032;2023-04-25T02:51:04;6.40;85.80
37322;DHT22;23697;48.684;9.032;2023-04-25T02:53:31;6.40;85.80
37322;DHT22;23697;48.684;9.032;2023-04-25T02:55:57;6.40;85.80
37322;DHT22;23697;48.684;9.032;2023-04-25T02:58:24;6.40;85.70
37322;DHT22;23697;48.684;9.032;2023-04-25T03:00:51;6.40;85.80
37322;DHT22;23697;48.684;9.032;2023-04-25T03:03:17;6.30;86.00
37322;DHT22;23697;48.684;9.032;2023-04-25T03:05:48;6.30;86.00
37322;DHT22;23697;48.684;9.032;2023-04-25T03:08:15;6.30;86.10
37322;DHT22;23697;48.684;9.032;2023-04-25T03:10:42;6.40;86.20
37322;DHT22;23697;48.684;9.032;2023-04-25T03:13:09;6.40;86.20
37322;DHT22;23697;48.684;9.032;2023-04-25T03:15:35;6.40;86.20
37322;DHT22;23697;48.684;9.032;2023-04-25T03:18:02;6.40;86.20
37322;DHT22;23697;48.684;9.032;2023-04-25T03:20:29;6.40;86.20
37322;DHT22;23697;48.684;9.032;2023-04-25T03:22:57;6.40;86.20
37322;DHT22;23697;48.684;9.032;2023-04-25T03:25:24;6.50;86.20
37322;DHT22;23697;48.684;9.032;2023-04-25T03:27:50;6.50;86.20
37322;DHT22;23697;48.684;9.032;2023-04-25T03:30:17;6.50;86.20
37322;DHT22;23697;48.684;9.032;2023-04-25T03:32:44;6.40;86.10
37322;DHT22;23697;48.684;9.032;2023-04-25T03:35:10;6.50;86.00
37322;DHT22;23697;48.684;9.032;2023-04-25T03:37:37;6.50;86.00
37322;DHT22;23697;48.684;9.032;2023-04-25T03:40:08;6.50;86.00
37322;DHT22;23697;48.684;9.032;2023-04-25T03:42:35;6.40;85.90
37322;DHT22;23697;48.684;9.032;2023-04-25T03:45:02;6.40;85.90
37322;DHT22;23697;48.684;9.032;2023-04-25T03:47:28;6.30;85.90
37322;DHT22;23697;48.684;9.032;2023-04-25T03:49:55;6.20;86.00
37322;DHT22;23697;48.684;9.032;2023-04-25T03:52:22;6.20;86.10
37322;DHT22;23697;48.684;9.032;2023-04-25T03:54:49;6.30;86.20
37322;DHT22;23697;48.684;9.032;2023-04-25T03:57:16;6.30;86.20
37322;DHT22;23697;48.684;9.032;2023-04-25T03:59:43;6.30;86.30
37322;DHT22;23697;48.684;9.032;2023-04-25T04:02:10;6.30;86.40
37322;DHT22;23697;48.684;9.032;2023-04-25T04:04:37;6.30;86.40
37322;DHT22;23697;48.684;9.032;2023-04-25T04:07:03;6.30;86.40
37322;DHT22;23697;48.684;9.032;2023-04-25T04:09:30;6.30;86.40
37322;DHT22;23697;48.684;9.032;2023-04-25T04:11:57;6.40;86.40
37322;DHT22;23697;48.684;9.032;2023-04-25T04:14:24;6.40;86.30
37322;DHT22;23697;48.684;9.032;2023-04-25T04:16:51;6.40;86.30
37322;DHT22;23697;48.684;9.032;2023-04-25T04:19:18;6.40;86.30
37322;DHT22;23697;48.684;9.032;2023-04-25T04:21:45;6.40;86.30
37322;DHT22;23697;48.684;9.032;2023-04-25T04:24:12;6.30;86.20
37322;DHT22;23697;48.684;9.032;2023-04-25T04:26:40;6.30;86.10
37322;DHT22;23697;48.684;9.032;2023-04-25T04:29:10;6.30;86.00
37322;DHT22;23697;48.684;9.032;2023-04-25T04:31:38;6.30;86.00
37322;DHT22;23697;48.684;9.032;2023-04-25T04:34:04;6.30;86.00
37322;DHT22;23697;48.684;9.032;2023-04-25T04:36:31;6.20;86.00
37322;DHT22;23697;48.684;9.032;2023-04-25T04:38:58;6.20;86.00
37322;DHT22;23697;48.684;9.032;2023-04-25T04:41:24;6.10;86.00
37322;DHT22;23697;48.684;9.032;2023-04-25T04:43:51;6.10;86.00
37322;DHT22;23697;48.684;9.032;2023-04-25T04:46:18;6.10;86.10
37322;DHT22;23697;48.684;9.032;2023-04-25T04:48:46;6.10;86.10
37322;DHT22;23697;48.684;9.032;2023-04-25T04:51:13;6.10;86.30
37322;DHT22;23697;48.684;9.032;2023-04-25T04:53:40;6.10;86.40
37322;DHT22;23697;48.684;9.032;2023-04-25T04:56:06;6.10;86.50
37322;DHT22;23697;48.684;9.032;2023-04-25T04:58:33;6.20;86.60
37322;DHT22;23697;48.684;9.032;2023-04-25T05:01:01;6.20;86.60
37322;DHT22;23697;48.684;9.032;2023-04-25T05:03:28;6.30;86.70
37322;DHT22;23697;48.684;9.032;2023-04-25T05:05:56;6.30;86.80
37322;DHT22;23697;48.684;9.032;2023-04-25T05:08:23;6.50;86.90
37322;DHT22;23697;48.684;9.032;2023-04-25T05:10:49;6.60;87.00
37322;DHT22;23697;48.684;9.032;2023-04-25T05:13:16;6.70;86.80
37322;DHT22;23697;48.684;9.032;2023-04-25T05:15:43;6.60;86.70
37322;DHT22;23697;48.684;9.032;2023-04-25T05:18:09;6.60;86.70
37322;DHT22;23697;48.684;9.032;2023-04-25T05:20:36;6.60;86.70
37322;DHT22;23697;48.684;9.032;2023-04-25T05:23:04;6.60;86.70
37322;DHT22;23697;48.684;9.032;2023-04-25T05:25:31;6.60;86.60
37322;DHT22;23697;48.684;9.032;2023-04-25T05:27:58;6.60;86.60
37322;DHT22;23697;48.684;9.032;2023-04-25T05:30:25;6.60;86.70
37322;DHT22;23697;48.684;9.032;2023-04-25T05:32:51;6.60;86.70
37322;DHT22;23697;48.684;9.032;2023-04-25T05:35:18;6.60;86.70
37322;DHT22;23697;48.684;9.032;2023-04-25T05:37:45;6.70;86.70
37322;DHT22;23697;48.684;9.032;2023-04-25T05:40:13;6.60;86.60
37322;DHT22;23697;48.684;9.032;2023-04-25T05:42:39;6.70;86.70
37322;DHT22;23697;48.684;9.032;2023-04-25T05:45:06;6.80;86.60
37322;DHT22;23697;48.684;9.032;2023-04-25T05:47:33;6.80;86.40
37322;DHT22;23697;48.684;9.032;2023-04-25T05:49:59;6.80;86.50
37322;DHT22;23697;48.684;9.032;2023-04-25T05:52:26;6.80;86.50
37322;DHT22;23697;48.684;9.032;2023-04-25T05:54:53;6.80;86.40
37322;DHT22;23697;48.684;9.032;2023-04-25T05:57:21;6.80;86.40
37322;DHT22;23697;48.684;9.032;2023-04-25T05:59:48;6.80;86.50
37322;DHT22;23697;48.684;9.032;2023-04-25T06:02:15;6.80;86.30
37322;DHT22;23697;48.684;9.032;2023-04-25T06:04:42;6.90;86.00
37322;DHT22;23697;48.684;9.032;2023-04-25T06:07:08;7.00;85.80
37322;DHT22;23697;48.684;9.032;2023-04-25T06:09:35;7.10;85.80
37322;DHT22;23697;48.684;9.032;2023-04-25T06:12:02;7.20;85.70
37322;DHT22;23697;48.684;9.032;2023-04-25T06:14:30;7.30;85.50
37322;DHT22;23697;48.684;9.032;2023-04-25T06:16:56;7.40;85.10
37322;DHT22;23697;48.684;9.032;2023-04-25T06:19:23;7.40;84.50
37322;DHT22;23697;48.684;9.032;2023-04-25T06:21:50;7.50;84.30
37322;DHT22;23697;48.684;9.032;2023-04-25T06:24:16;7.50;84.20
37322;DHT22;23697;48.684;9.032;2023-04-25T06:26:43;7.50;83.90
37322;DHT22;23697;48.684;9.032;2023-04-25T06:29:10;7.50;83.60
37322;DHT22;23697;48.684;9.032;2023-04-25T06:31:38;7.40;83.80
37322;DHT22;23697;48.684;9.032;2023-04-25T06:34:04;7.40;83.50
37322;DHT22;23697;48.684;9.032;2023-04-25T06:36:31;7.30;83.60
37322;DHT22;23697;48.684;9.032;2023-04-25T06:38:57;7.20;83.10
37322;DHT22;23697;48.684;9.032;2023-04-25T06:41:24;7.10;82.80
37322;DHT22;23697;48.684;9.032;2023-04-25T06:43:51;7.10;82.90
37322;DHT22;23697;48.684;9.032;2023-04-25T06:46:17;7.10;82.80
37322;DHT22;23697;48.684;9.032;2023-04-25T06:48:45;7.10;82.30
37322;DHT22;23697;48.684;9.032;2023-04-25T06:51:12;7.10;82.40
37322;DHT22;23697;48.684;9.032;2023-04-25T06:53:39;7.10;82.40
37322;DHT22;23697;48.684;9.032;2023-04-25T06:56:06;7.10;82.90
37322;DHT22;23697;48.684;9.032;2023-04-25T06:58:32;7.10;83.40
37322;DHT22;23697;48.684;9.032;2023-04-25T07:00:59;7.10;83.30
37322;DHT22;23697;48.684;9.032;2023-04-25T07:03:26;7.10;83.40
37322;DHT22;23697;48.684;9.032;2023-04-25T07:05:54;7.10;83.10
37322;DHT22;23697;48.684;9.032;2023-04-25T07:08:21;7.20;82.50
37322;DHT22;23697;48.684;9.032;2023-04-25T07:10:47;7.10;82.20
37322;DHT22;23697;48.684;9.032;2023-04-25T07:13:14;7.10;82.40
37322;DHT22;23697;48.684;9.032;2023-04-25T07:15:41;7.10;82.60
37322;DHT22;23697;48.684;9.032;2023-04-25T07:18:08;7.20;82.60
37322;DHT22;23697;48.684;9.032;2023-04-25T07:20:34;7.20;83.00
37322;DHT22;23697;48.684;9.032;2023-04-25T07:23:02;7.20;83.20
37322;DHT22;23697;48.684;9.032;2023-04-25T07:25:29;7.30;82.90
37322;DHT22;23697;48.684;9.032;2023-04-25T07:27:56;7.20;83.50
37322;DHT22;23697;48.684;9.032;2023-04-25T07:30:23;7.30;83.40
37322;DHT22;23697;48.684;9.032;2023-04-25T07:32:50;7.30;83.70
37322;DHT22;23697;48.684;9.032;2023-04-25T07:35:16;7.20;83.60
37322;DHT22;23697;48.684;9.032;2023-04-25T07:37:43;7.30;83.80
37322;DHT22;23697;48.684;9.032;2023-04-25T07:40:12;7.30;84.00
37322;DHT22;23697;48.684;9.032;2023-04-25T07:42:38;7.40;83.50
37322;DHT22;23697;48.684;9.032;2023-04-25T07:45:05;7.30;83.80
37322;DHT22;23697;48.684;9.032;2023-04-25T07:47:32;7.30;84.20
37322;DHT22;23697;48.684;9.032;2023-04-25T07:49:59;7.30;84.40
37322;DHT22;23697;48.684;9.032;2023-04-25T07:52:25;7.30;84.50
37322;DHT22;23697;48.684;9.032;2023-04-25T07:54:52;7.20;84.70
37322;DHT22;23697;48.684;9.032;2023-04-25T07:57:20;7.20;84.80
37322;DHT22;23697;48.684;9.032;2023-04-25T07:59:47;7.20;84.80
37322;DHT22;23697;48.684;9.032;2023-04-25T08:02:13;7.30;84.90
37322;DHT22;23697;48.684;9.032;2023-04-25T08:04:40;7.20;85.10
37322;DHT22;23697;48.684;9.032;2023-04-25T08:07:07;7.30;85.30
37322;DHT22;23697;48.684;9.032;2023-04-25T08:09:33;7.30;85.30
37322;DHT22;23697;48.684;9.032;2023-04-25T08:12:01;7.30;85.30
37322;DHT22;23697;48.684;9.032;2023-04-25T08:14:29;7.30;85.30
37322;DHT22;23697;48.684;9.032;2023-04-25T08:17:01;7.30;85.40
37322;DHT22;23697;48.684;9.032;2023-04-25T08:19:27;7.20;85.30
37322;DHT22;23697;48.684;9.032;2023-04-25T08:21:54;7.20;85.50
37322;DHT22;23697;48.684;9.032;2023-04-25T08:24:21;7.20;85.60
37322;DHT22;23697;48.684;9.032;2023-04-25T08:26:48;7.20;85.70
37322;DHT22;23697;48.684;9.032;2023-04-25T08:29:15;7.20;85.80
37322;DHT22;23697;48.684;9.032;2023-04-25T08:31:43;7.20;86.00
37322;DHT22;23697;48.684;9.032;2023-04-25T08:34:09;7.20;86.20
37322;DHT22;23697;48.684;9.032;2023-04-25T08:36:36;7.20;86.40
37322;DHT22;23697;48.684;9.032;2023-04-25T08:39:03;7.20;86.50
37322;DHT22;23697;48.684;9.032;2023-04-25T08:41:29;7.10;86.60
37322;DHT22;23697;48.684;9.032;2023-04-25T08:43:57;7.10;86.70
37322;DHT22;23697;48.684;9.032;2023-04-25T08:46:25;7.10;86.70
37322;DHT22;23697;48.684;9.032;2023-04-25T08:48:53;7.10;86.80
37322;DHT22;23697;48.684;9.032;2023-04-25T08:51:23;7.10;87.00
37322;DHT22;23697;48.684;9.032;2023-04-25T08:53:50;7.00;87.00
37322;DHT22;23697;48.684;9.032;2023-04-25T08:56:17;7.00;87.00
37322;DHT22;23697;48.684;9.032;2023-04-25T08:58:47;6.90;86.90
37322;DHT22;23697;48.684;9.032;2023-04-25T09:01:14;6.90;87.00
37322;DHT22;23697;48.684;9.032;2023-04-25T09:03:40;6.90;87.10
37322;DHT22;23697;48.684;9.032;2023-04-25T09:06:09;6.80;87.10
37322;DHT22;23697;48.684;9.032;2023-04-25T09:08:36;6.80;87.10
37322;DHT22;23697;48.684;9.032;2023-04-25T09:11:05;6.80;87.10
37322;DHT22;23697;48.684;9.032;2023-04-25T09:13:32;6.80;87.00
37322;DHT22;23697;48.684;9.032;2023-04-25T09:15:59;6.80;87.10
37322;DHT22;23697;48.684;9.032;2023-04-25T09:18:26;6.70;87.00
37322;DHT22;23697;48.684;9.032;2023-04-25T09:20:53;6.80;87.10
37322;DHT22;23697;48.684;9.032;2023-04-25T09:23:21;6.80;87.20
37322;DHT22;23697;48.684;9.032;2023-04-25T09:25:48;6.70;87.10
37322;DHT22;23697;48.684;9.032;2023-04-25T09:28:15;6.70;87.10
37322;DHT22;23697;48.684;9.032;2023-04-25T09:30:42;6.80;87.20
37322;DHT22;23697;48.684;9.032;2023-04-25T09:33:09;6.70;87.00
37322;DHT22;23697;48.684;9.032;2023-04-25T09:35:36;6.50;86.70
37322;DHT22;23697;48.684;9.032;2023-04-25T09:38:07;6.40;86.80
37322;DHT22;23697;48.684;9.032;2023-04-25T09:40:38;6.40;87.00
37322;DHT22;23697;48.684;9.032;2023-04-25T09:43:08;6.50;87.20
37322;DHT22;23697;48.684;9.032;2023-04-25T09:45:40;6.40;87.30
37322;DHT22;23697;48.684;9.032;2023-04-25T09:48:07;6.40;87.10
37322;DHT22;23697;48.684;9.032;2023-04-25T09:50:33;6.40;87.20
37322;DHT22;23697;48.684;9.032;2023-04-25T09:53:03;6.30;87.20
37322;DHT22;23697;48.684;9.032;2023-04-25T09:55:31;6.40;87.30
37322;DHT22;23697;48.684;9.032;2023-04-25T09:58:01;6.50;87.50
37322;DHT22;23697;48.684;9.032;2023-04-25T10:00:28;6.60;87.60
37322;DHT22;23697;48.684;9.032;2023-04-25T10:02:55;6.50;87.60
37322;DHT22;23697;48.684;9.032;2023-04-25T10:05:23;6.50;87.40
37322;DHT22;23697;48.684;9.032;2023-04-25T10:07:51;6.50;87.20
37322;DHT22;23697;48.684;9.032;2023-04-25T10:10:18;6.50;87.20
37322;DHT22;23697;48.684;9.032;2023-04-25T10:12:51;6.50;87.20
37322;DHT22;23697;48.684;9.032;2023-04-25T10:15:19;6.50;87.10
37322;DHT22;23697;48.684;9.032;2023-04-25T10:17:45;6.50;87.00
37322;DHT22;23697;48.684;9.032;2023-04-25T10:20:12;6.50;86.70
37322;DHT22;23697;48.684;9.032;2023-04-25T10:22:41;6.50;86.70
37322;DHT22;23697;48.684;9.032;2023-04-25T10:25:08;6.60;86.90
37322;DHT22;23697;48.684;9.032;2023-04-25T10:27:36;6.80;87.10
37322;DHT22;23697;48.684;9.032;2023-04-25T10:30:03;6.80;87.00
37322;DHT22;23697;48.684;9.032;2023-04-25T10:32:32;6.90;86.90
37322;DHT22;23697;48.684;9.032;2023-04-25T10:35:09;7.00;86.90
37322;DHT22;23697;48.684;9.032;2023-04-25T10:37:36;7.00;86.70
37322;DHT22;23697;48.684;9.032;2023-04-25T10:40:07;7.10;86.70
37322;DHT22;23697;48.684;9.032;2023-04-25T10:42:34;7.10;86.50
37322;DHT22;23697;48.684;9.032;2023-04-25T10:45:01;7.20;86.70
37322;DHT22;23697;48.684;9.032;2023-04-25T10:47:35;7.10;86.30
37322;DHT22;23697;48.684;9.032;2023-04-25T10:50:04;7.10;86.40
37322;DHT22;23697;48.684;9.032;2023-04-25T10:52:32;7.10;86.50
37322;DHT22;23697;48.684;9.032;2023-04-25T10:54:59;7.10;86.50
37322;DHT22;23697;48.684;9.032;2023-04-25T10:57:26;7.10;86.30
37322;DHT22;23697;48.684;9.032;2023-04-25T10:59:52;7.10;86.30
37322;DHT22;23697;48.684;9.032;2023-04-25T11:02:19;7.20;86.60
37322;DHT22;23697;48.684;9.032;2023-04-25T11:04:47;7.30;86.50
37322;DHT22;23697;48.684;9.032;2023-04-25T11:07:16;7.40;86.80
37322;DHT22;23697;48.684;9.032;2023-04-25T11:09:44;7.40;86.50
37322;DHT22;23697;48.684;9.032;2023-04-25T11:12:11;7.30;86.40
37322;DHT22;23697;48.684;9.032;2023-04-25T11:14:38;7.30;86.40
37322;DHT22;23697;48.684;9.032;2023-04-25T11:17:05;7.30;86.30
37322;DHT22;23697;48.684;9.032;2023-04-25T11:19:32;7.40;86.60
37322;DHT22;23697;48.684;9.032;2023-04-25T11:22:00;7.50;86.80
37322;DHT22;23697;48.684;9.032;2023-04-25T11:24:27;7.50;86.60
37322;DHT22;23697;48.684;9.032;2023-04-25T11:26:54;7.40;86.60
37322;DHT22;23697;48.684;9.032;2023-04-25T11:29:21;7.30;86.50
37322;DHT22;23697;48.684;9.032;2023-04-25T11:31:48;7.40;86.80
37322;DHT22;23697;48.684;9.032;2023-04-25T11:34:16;7.40;86.80
37322;DHT22;23697;48.684;9.032;2023-04-25T11:36:43;7.40;86.50
37322;DHT22;23697;48.684;9.032;2023-04-25T11:39:12;7.50;86.20
37322;DHT22;23697;48.684;9.032;2023-04-25T11:41:38;7.40;85.50
37322;DHT22;23697;48.684;9.032;2023-04-25T11:44:05;7.30;85.60
37322;DHT22;23697;48.684;9.032;2023-04-25T11:46:33;7.30;85.30
37322;DHT22;23697;48.684;9.032;2023-04-25T11:49:00;7.40;86.00
37322;DHT22;23697;48.684;9.032;2023-04-25T11:51:26;7.40;85.60
37322;DHT22;23697;48.684;9.032;2023-04-25T11:53:53;7.40;85.50
37322;DHT22;23697;48.684;9.032;2023-04-25T11:56:21;7.40;85.80
37322;DHT22;23697;48.684;9.032;2023-04-25T11:58:55;7.50;85.70
37322;DHT22;23697;48.684;9.032;2023-04-25T12:01:26;7.80;86.10
37322;DHT22;23697;48.684;9.032;2023-04-25T12:03:52;7.90;85.90
37322;DHT22;23697;48.684;9.032;2023-04-25T12:06:19;8.10;86.10
37322;DHT22;23697;48.684;9.032;2023-04-25T12:08:58;8.20;86.10
37322;DHT22;23697;48.684;9.032;2023-04-25T12:11:26;8.40;85.70
37322;DHT22;23697;48.684;9.032;2023-04-25T12:13:53;8.50;85.90
37322;DHT22;23697;48.684;9.032;2023-04-25T12:16:19;8.60;84.90
37322;DHT22;23697;48.684;9.032;2023-04-25T12:18:46;8.40;82.10
37322;DHT22;23697;48.684;9.032;2023-04-25T12:21:13;8.30;83.30
37322;DHT22;23697;48.684;9.032;2023-04-25T12:23:39;8.30;82.90
37322;DHT22;23697;48.684;9.032;2023-04-25T12:26:06;8.30;82.00
37322;DHT22;23697;48.684;9.032;2023-04-25T12:28:34;8.10;81.00
37322;DHT22;23697;48.684;9.032;2023-04-25T12:31:04;7.90;82.30
37322;DHT22;23697;48.684;9.032;2023-04-25T12:33:31;7.80;82.60
37322;DHT22;23697;48.684;9.032;2023-04-25T12:35:58;7.80;82.90
37322;DHT22;23697;48.684;9.032;2023-04-25T12:38:26;7.80;83.70
37322;DHT22;23697;48.684;9.032;2023-04-25T12:40:54;7.90;83.80
37322;DHT22;23697;48.684;9.032;2023-04-25T12:43:21;8.00;84.20
37322;DHT22;23697;48.684;9.032;2023-04-25T12:45:49;8.10;84.10
37322;DHT22;23697;48.684;9.032;2023-04-25T12:48:16;8.20;84.20
37322;DHT22;23697;48.684;9.032;2023-04-25T12:50:43;8.30;83.10
37322;DHT22;23697;48.684;9.032;2023-04-25T12:53:10;8.50;84.10
37322;DHT22;23697;48.684;9.032;2023-04-25T12:55:36;8.60;84.20
37322;DHT22;23697;48.684;9.032;2023-04-25T12:58:03;8.60;82.80
37322;DHT22;23697;48.684;9.032;2023-04-25T13:00:30;8.60;81.80
37322;DHT22;23697;48.684;9.032;2023-04-25T13:02:58;8.70;83.20
37322;DHT22;23697;48.684;9.032;2023-04-25T13:05:25;8.80;82.20
37322;DHT22;23697;48.684;9.032;2023-04-25T13:07:51;8.90;81.60
37322;DHT22;23697;48.684;9.032;2023-04-25T13:10:18;8.90;80.50
37322;DHT22;23697;48.684;9.032;2023-04-25T13:12:45;8.80;79.60
37322;DHT22;23697;48.684;9.032;2023-04-25T13:15:12;8.80;80.30
37322;DHT22;23697;48.684;9.032;2023-04-25T13:17:40;9.00;79.60
37322;DHT22;23697;48.684;9.032;2023-04-25T13:20:09;9.10;80.10
37322;DHT22;23697;48.684;9.032;2023-04-25T13:22:37;9.30;82.00
37322;DHT22;23697;48.684;9.032;2023-04-25T13:25:04;9.60;82.50
37322;DHT22;23697;48.684;9.032;2023-04-25T13:27:31;9.80;82.40
37322;DHT22;23697;48.684;9.032;2023-04-25T13:29:59;9.90;80.10
37322;DHT22;23697;48.684;9.032;2023-04-25T13:32:26;10.00;80.40
37322;DHT22;23697;48.684;9.032;2023-04-25T13:34:52;10.10;80.50
37322;DHT22;23697;48.684;9.032;2023-04-25T13:37:20;10.20;80.00
37322;DHT22;23697;48.684;9.032;2023-04-25T13:39:49;10.50;80.40
37322;DHT22;23697;48.684;9.032;2023-04-25T13:42:16;10.60;76.10
37322;DHT22;23697;48.684;9.032;2023-04-25T13:44:42;10.80;78.10
37322;DHT22;23697;48.684;9.032;2023-04-25T13:47:09;10.60;74.40
37322;DHT22;23697;48.684;9.032;2023-04-25T13:49:36;10.60;77.30
37322;DHT22;23697;48.684;9.032;2023-04-25T13:52:02;10.50;76.10
37322;DHT22;23697;48.684;9.032;2023-04-25T13:54:32;10.30;75.00
37322;DHT22;23697;48.684;9.032;2023-04-25T13:56:58;10.10;76.60
37322;DHT22;23697;48.684;9.032;2023-04-25T13:59:25;10.10;78.30
37322;DHT22;23697;48.684;9.032;2023-04-25T14:01:52;10.10;78.90
37322;DHT22;23697;48.684;9.032;2023-04-25T14:04:19;10.20;78.90
37322;DHT22;23697;48.684;9.032;2023-04-25T14:06:46;10.30;78.20
37322;DHT22;23697;48.684;9.032;2023-04-25T14:09:12;10.60;77.10
37322;DHT22;23697;48.684;9.032;2023-04-25T14:11:41;10.60;75.90
37322;DHT22;23697;48.684;9.032;2023-04-25T14:14:08;10.60;75.30
37322;DHT22;23697;48.684;9.032;2023-04-25T14:16:35;10.40;72.30
37322;DHT22;23697;48.684;9.032;2023-04-25T14:19:01;10.20;71.90
37322;DHT22;23697;48.684;9.032;2023-04-25T14:21:28;10.10;73.00
37322;DHT22;23697;48.684;9.032;2023-04-25T14:23:57;10.10;74.50
37322;DHT22;23697;48.684;9.032;2023-04-25T14:26:24;10.10;73.60
37322;DHT22;23697;48.684;9.032;2023-04-25T14:28:52;10.10;73.00
37322;DHT22;23697;48.684;9.032;2023-04-25T14:31:19;9.70;72.60
37322;DHT22;23697;48.684;9.032;2023-04-25T14:33:46;9.60;74.30
37322;DHT22;23697;48.684;9.032;2023-04-25T14:36:12;9.60;75.70
37322;DHT22;23697;48.684;9.032;2023-04-25T14:38:39;9.70;78.20
37322;DHT22;23697;48.684;9.032;2023-04-25T14:41:06;9.80;78.30
37322;DHT22;23697;48.684;9.032;2023-04-25T14:43:32;9.80;76.70
37322;DHT22;23697;48.684;9.032;2023-04-25T14:46:00;9.90;77.50
37322;DHT22;23697;48.684;9.032;2023-04-25T14:48:27;9.90;76.70
37322;DHT22;23697;48.684;9.032;2023-04-25T14:50:54;9.90;77.40
37322;DHT22;23697;48.684;9.032;2023-04-25T14:53:21;10.10;77.50
37322;DHT22;23697;48.684;9.032;2023-04-25T14:55:48;10.10;76.30
37322;DHT22;23697;48.684;9.032;2023-04-25T14:58:15;10.20;76.40
37322;DHT22;23697;48.684;9.032;2023-04-25T15:00:42;10.20;75.80
37322;DHT22;23697;48.684;9.032;2023-04-25T15:03:10;10.40;75.20
37322;DHT22;23697;48.684;9.032;2023-04-25T15:05:38;10.60;74.30
37322;DHT22;23697;48.684;9.032;2023-04-25T15:08:05;10.80;73.10
37322;DHT22;23697;48.684;9.032;2023-04-25T15:10:32;11.00;71.70
37322;DHT22;23697;48.684;9.032;2023-04-25T15:12:58;11.10;73.00
37322;DHT22;23697;48.684;9.032;2023-04-25T15:15:25;11.10;71.90
37322;DHT22;23697;48.684;9.032;2023-04-25T15:17:52;11.30;71.40
37322;DHT22;23697;48.684;9.032;2023-04-25T15:20:20;11.60;70.70
37322;DHT22;23697;48.684;9.032;2023-04-25T15:22:47;11.70;64.50
37322;DHT22;23697;48.684;9.032;2023-04-25T15:25:14;11.40;64.90
37322;DHT22;23697;48.684;9.032;2023-04-25T15:27:43;11.10;67.30
37322;DHT22;23697;48.684;9.032;2023-04-25T15:30:11;11.10;65.60
37322;DHT22;23697;48.684;9.032;2023-04-25T15:32:40;11.10;64.90
37322;DHT22;23697;48.684;9.032;2023-04-25T15:35:07;11.10;67.30
37322;DHT22;23697;48.684;9.032;2023-04-25T15:37:36;10.90;67.50
37322;DHT22;23697;48.684;9.032;2023-04-25T15:40:05;10.90;68.10
37322;DHT22;23697;48.684;9.032;2023-04-25T15:42:34;10.70;67.40
37322;DHT22;23697;48.684;9.032;2023-04-25T15:45:01;10.70;67.70